Hauptseite
METAR-TAF:

METAR-TAF

Flughäfen :

Gloucester, England

Breite: 51-54N, Länge: 002-10W, Höhe: 29 m

Beobachtung

Neuester Wetterbericht von vor 18 Minuten, um 15:50 UTC
Wind 4 kt aus Süd, variierte zwischen Süd/Südost und Südwest
Temperatur 13°C
Luftfeuchtigkeit 72%
Luftdruck 1019 hPa
Sichtweite 10 km oder mehr
Leicht bewölkt in der Höhe von 3000 ft

METAR: EGBJ 141550Z 18004KT 150V230 9999 FEW030 13/08 Q1019

Zeit: 16:08 (16:08 UTC)

Prognose

Neuester Wetterbericht von vor 2 Stunden und 7 Minuten, um 14:01 UTC
Gültige Prognose vom 14 um 15 UTC bis 14 um 20 UTC
Wind 9 kt aus Süd
Sichtweite 10 km oder mehr
Leicht bewölkt in der Höhe von 2500 ft

TAF: EGBJ 141401Z 1415/1420 19009KT 9999 FEW025

Wetterbeobachtungen und Prognosen von mehr als 4000 Flughäfen (METAR und TAF Bericht).

Die verfügbaren Stationen werden durch gelbe und rote Markierungen auf der Karte dargestellt.

Führen Sie die Maus auf sie, um den Namen der Station zu sehen.

Darauf klicken, um die Beobachtung von Wetterbeobachtungen und Prognosen zu sehen.

Um die Karte zu ändern : klicken Sie auf den grünen Tasten mit einem schwarzen Kreuz Zum Vergrößern, auf den grünen Button mit einem Gedankenstrich zu verkleinern, oder auf die grünen Pfeile für benachbarte Karten.


METAR-TAF: